Time;durP1;ratioP1;P1;durP2;ratioP2;P2;SDS_P1;SDS_P2;PMS_P1;PMS_P2;Temp;Humidity;BMP_temperature;BMP_pressure;BME280_temperature;BME280_humidity;BME280_pressure;Samples;Min_cycle;Max_cycle;Signal;HPM_P1;HPM_P2
2024/04/03 00:00:28;;;;;;;7.38;2.25;;;;;;;;;;5051288;28;20057;-57
2024/04/03 00:02:54;;;;;;;6.78;2.20;;;;;;;;;;5045982;28;20479;-57
2024/04/03 00:05:21;;;;;;;6.85;2.10;;;;;;;;;;5050020;28;20079;-57
2024/04/03 00:07:47;;;;;;;6.72;2.20;;;;;;;;;;5046562;28;20065;-57
2024/04/03 00:10:13;;;;;;;4.88;1.80;;;;;;;;;;5049393;28;20083;-57
2024/04/03 00:12:41;;;;;;;5.38;2.10;;;;;;;;;;5047451;28;20072;-57
2024/04/03 00:15:07;;;;;;;3.25;1.70;;;;;;;;;;5048386;28;20057;-57
2024/04/03 00:17:33;;;;;;;7.03;2.17;;;;;;;;;;5048217;28;20049;-57
2024/04/03 00:20:00;;;;;;;4.72;1.98;;;;;;;;;;5047304;28;20566;-57
2024/04/03 00:22:26;;;;;;;4.43;1.92;;;;;;;;;;5049903;28;20056;-57
2024/04/03 00:24:53;;;;;;;3.58;1.73;;;;;;;;;;5049913;28;20486;-58
2024/04/03 00:27:19;;;;;;;6.65;1.88;;;;;;;;;;5053778;28;20053;-58
2024/04/03 00:29:47;;;;;;;4.90;1.98;;;;;;;;;;5049601;28;20047;-58
2024/04/03 00:32:13;;;;;;;5.53;2.33;;;;;;;;;;5054290;28;20060;-58
2024/04/03 00:34:40;;;;;;;6.80;2.10;;;;;;;;;;5048573;28;20486;-58
2024/04/03 00:37:06;;;;;;;5.65;2.30;;;;;;;;;;5055573;28;20041;-58
2024/04/03 00:39:34;;;;;;;5.20;2.22;;;;;;;;;;5055564;28;20055;-58
2024/04/03 00:42:00;;;;;;;6.03;2.70;;;;;;;;;;5055112;28;20057;-58
2024/04/03 00:44:27;;;;;;;4.78;2.33;;;;;;;;;;5047521;28;20056;-58
2024/04/03 00:46:54;;;;;;;5.72;2.67;;;;;;;;;;5054796;28;20052;-58
2024/04/03 00:49:21;;;;;;;5.20;2.40;;;;;;;;;;5054293;28;20402;-58
2024/04/03 00:51:48;;;;;;;4.50;2.17;;;;;;;;;;5054172;28;20048;-58
2024/04/03 00:54:15;;;;;;;7.07;2.40;;;;;;;;;;5046311;28;20055;-58
2024/04/03 00:56:41;;;;;;;4.15;2.20;;;;;;;;;;5054013;28;20053;-58
2024/04/03 00:59:08;;;;;;;7.10;2.92;;;;;;;;;;5046245;28;20103;-58
2024/04/03 01:01:34;;;;;;;5.35;2.47;;;;;;;;;;5054354;28;20482;-58
2024/04/03 01:04:02;;;;;;;3.95;1.90;;;;;;;;;;5045513;28;20080;-58
2024/04/03 01:06:28;;;;;;;4.82;2.30;;;;;;;;;;5053565;28;20053;-59
2024/04/03 01:08:55;;;;;;;5.63;2.50;;;;;;;;;;5045773;28;20394;-58
2024/04/03 01:11:20;;;;;;;3.78;1.98;;;;;;;;;;5054079;28;20060;-58
2024/04/03 01:13:47;;;;;;;3.35;1.90;;;;;;;;;;5045931;28;20049;-58
2024/04/03 01:16:13;;;;;;;4.43;2.00;;;;;;;;;;5053562;28;20048;-58
2024/04/03 01:18:40;;;;;;;5.40;2.28;;;;;;;;;;5046410;28;20520;-57
2024/04/03 01:21:07;;;;;;;4.85;2.40;;;;;;;;;;5053354;28;20060;-57
2024/04/03 01:23:34;;;;;;;5.55;1.98;;;;;;;;;;5045387;28;20060;-58
2024/04/03 01:26:01;;;;;;;5.85;2.30;;;;;;;;;;5053458;28;20410;-57
2024/04/03 01:28:28;;;;;;;4.85;2.15;;;;;;;;;;5053601;28;20052;-57
2024/04/03 01:30:54;;;;;;;5.57;2.38;;;;;;;;;;5054364;28;20060;-57
2024/04/03 01:33:20;;;;;;;4.95;1.98;;;;;;;;;;5045326;28;20084;-57
2024/04/03 01:35:46;;;;;;;4.82;2.03;;;;;;;;;;5053983;28;20407;-57
2024/04/03 01:38:13;;;;;;;4.07;1.90;;;;;;;;;;5053271;28;20131;-57
2024/04/03 01:40:39;;;;;;;6.45;1.90;;;;;;;;;;5053307;28;20053;-57
2024/04/03 01:43:07;;;;;;;4.05;1.90;;;;;;;;;;5045605;28;20128;-57
2024/04/03 01:45:33;;;;;;;3.97;1.70;;;;;;;;;;5045323;28;20068;-57
2024/04/03 01:48:00;;;;;;;5.95;2.28;;;;;;;;;;5009486;28;1268692;-58
2024/04/03 01:50:34;;;;;;;4.93;1.67;;;;;;;;;;5054237;28;20064;-58
2024/04/03 01:53:01;;;;;;;5.32;1.95;;;;;;;;;;5054261;28;20045;-58
2024/04/03 01:55:27;;;;;;;6.55;1.98;;;;;;;;;;5054173;28;20416;-57
2024/04/03 01:57:54;;;;;;;6.10;2.00;;;;;;;;;;5047326;28;20049;-58
2024/04/03 02:00:21;;;;;;;4.35;2.03;;;;;;;;;;5052351;28;20053;-58
2024/04/03 02:02:47;;;;;;;5.22;2.10;;;;;;;;;;5048969;28;20057;-57
2024/04/03 02:05:13;;;;;;;5.20;1.90;;;;;;;;;;5051613;28;20049;-58
2024/04/03 02:07:40;;;;;;;3.90;1.80;;;;;;;;;;5049199;28;20060;-58
2024/04/03 02:10:06;;;;;;;4.90;1.92;;;;;;;;;;5050303;28;20402;-58
2024/04/03 02:12:33;;;;;;;3.95;1.70;;;;;;;;;;5050302;28;20049;-58
2024/04/03 02:14:59;;;;;;;5.72;1.90;;;;;;;;;;5049007;28;20057;-58
2024/04/03 02:17:27;;;;;;;5.28;2.10;;;;;;;;;;5050920;28;20051;-58
2024/04/03 02:19:53;;;;;;;4.75;2.03;;;;;;;;;;5048205;28;20053;-60
2024/04/03 02:22:20;;;;;;;4.95;2.40;;;;;;;;;;5051877;28;20084;-59
2024/04/03 02:24:45;;;;;;;5.10;2.28;;;;;;;;;;5047106;28;20053;-60
2024/04/03 02:27:12;;;;;;;4.03;1.83;;;;;;;;;;5053015;28;20056;-59
2024/04/03 02:29:38;;;;;;;3.53;1.88;;;;;;;;;;5053923;28;20053;-59
2024/04/03 02:32:05;;;;;;;5.93;2.20;;;;;;;;;;5053329;28;20052;-59
2024/04/03 02:34:32;;;;;;;3.67;2.03;;;;;;;;;;5053127;28;20497;-59
2024/04/03 02:36:59;;;;;;;5.60;2.10;;;;;;;;;;5053375;28;20406;-59
2024/04/03 02:39:25;;;;;;;4.88;2.30;;;;;;;;;;5045418;28;20057;-59
2024/04/03 02:41:51;;;;;;;4.03;2.67;;;;;;;;;;5053126;28;20049;-59
2024/04/03 02:44:17;;;;;;;4.53;2.20;;;;;;;;;;5044943;28;20049;-59
2024/04/03 02:46:44;;;;;;;4.22;2.10;;;;;;;;;;5052110;28;20075;-59
2024/04/03 02:49:12;;;;;;;4.20;2.30;;;;;;;;;;5053428;28;20048;-60
2024/04/03 02:51:40;;;;;;;4.70;2.38;;;;;;;;;;5053213;28;20049;-60
2024/04/03 02:54:05;;;;;;;5.15;2.70;;;;;;;;;;5045080;28;20394;-59
2024/04/03 02:56:32;;;;;;;3.97;2.20;;;;;;;;;;5053350;28;20055;-59
2024/04/03 02:58:58;;;;;;;4.30;2.25;;;;;;;;;;5044803;28;20049;-59
2024/04/03 03:01:25;;;;;;;3.83;2.65;;;;;;;;;;5052960;28;20068;-59
2024/04/03 03:03:51;;;;;;;5.93;2.42;;;;;;;;;;5044599;28;20402;-60
2024/04/03 03:06:17;;;;;;;4.90;2.47;;;;;;;;;;5052620;28;20131;-59
2024/04/03 03:08:45;;;;;;;3.60;2.53;;;;;;;;;;5044824;28;20057;-60
2024/04/03 03:11:11;;;;;;;4.13;2.63;;;;;;;;;;5052993;28;20051;-60
2024/04/03 03:13:37;;;;;;;5.20;2.55;;;;;;;;;;5044694;28;20398;-59
2024/04/03 03:16:04;;;;;;;4.05;2.50;;;;;;;;;;5052423;28;20053;-59
2024/04/03 03:18:32;;;;;;;5.22;2.78;;;;;;;;;;5044653;28;20049;-59
2024/04/03 03:20:59;;;;;;;4.78;2.65;;;;;;;;;;5052724;28;20049;-59
2024/04/03 03:23:25;;;;;;;4.00;2.80;;;;;;;;;;5044215;28;20064;-58
2024/04/03 03:25:54;;;;;;;5.18;3.20;;;;;;;;;;5052819;28;20406;-59
2024/04/03 03:28:20;;;;;;;4.30;2.60;;;;;;;;;;5052572;28;20510;-57
2024/04/03 03:30:48;;;;;;;4.53;2.90;;;;;;;;;;5052678;28;20056;-60
2024/04/03 03:33:13;;;;;;;4.63;3.10;;;;;;;;;;5044307;28;20056;-59
2024/04/03 03:35:40;;;;;;;5.20;3.25;;;;;;;;;;5052489;28;20493;-59
2024/04/03 03:38:07;;;;;;;5.15;3.35;;;;;;;;;;5044445;28;20498;-59
2024/04/03 03:40:36;;;;;;;4.97;3.35;;;;;;;;;;5044059;28;20073;-59
2024/04/03 03:43:04;;;;;;;4.95;2.95;;;;;;;;;;5044875;28;20049;-59
2024/04/03 03:45:30;;;;;;;5.22;2.97;;;;;;;;;;5051806;28;20060;-59
2024/04/03 03:47:57;;;;;;;5.45;3.42;;;;;;;;;;5052345;28;20053;-59
2024/04/03 03:53:07;;;;;;;6.35;3.42;;;;;;;;;;5048565;28;20050;-59
2024/04/03 03:55:34;;;;;;;5.60;2.90;;;;;;;;;;5044431;28;20060;-60
2024/04/03 03:58:01;;;;;;;4.95;2.70;;;;;;;;;;5046433;28;20049;-59
2024/04/03 04:00:29;;;;;;;4.95;2.47;;;;;;;;;;5055803;28;20053;-59
2024/04/03 04:02:56;;;;;;;5.25;2.45;;;;;;;;;;5049643;28;20380;-59
2024/04/03 04:05:22;;;;;;;5.25;2.40;;;;;;;;;;5054769;28;20414;-60
2024/04/03 04:07:48;;;;;;;4.10;2.58;;;;;;;;;;5050129;28;20056;-59
2024/04/03 04:10:15;;;;;;;4.60;2.92;;;;;;;;;;5053395;28;20495;-59
2024/04/03 04:12:42;;;;;;;6.28;2.97;;;;;;;;;;5051535;28;20513;-59
2024/04/03 04:15:09;;;;;;;5.18;3.30;;;;;;;;;;5052661;28;20049;-59
2024/04/03 04:17:36;;;;;;;5.35;2.72;;;;;;;;;;5052055;28;20053;-59
2024/04/03 04:20:06;;;;;;;5.10;3.03;;;;;;;;;;5051573;28;20053;-59
2024/04/03 04:22:33;;;;;;;4.30;2.63;;;;;;;;;;5052793;28;20049;-59
2024/04/03 04:24:59;;;;;;;5.20;3.15;;;;;;;;;;5051283;28;20053;-59
2024/04/03 04:27:26;;;;;;;5.03;2.90;;;;;;;;;;5053361;28;20059;-59
2024/04/03 04:29:52;;;;;;;4.70;2.80;;;;;;;;;;5049908;28;20057;-59
2024/04/03 04:32:18;;;;;;;6.18;2.90;;;;;;;;;;5053752;28;20533;-59
2024/04/03 04:34:46;;;;;;;5.05;2.80;;;;;;;;;;5049088;28;20052;-59
2024/04/03 04:37:12;;;;;;;6.05;3.00;;;;;;;;;;5055565;28;20071;-59
2024/04/03 04:39:39;;;;;;;6.30;2.97;;;;;;;;;;5056607;28;20467;-59
2024/04/03 04:42:05;;;;;;;5.97;2.88;;;;;;;;;;5055358;28;20045;-59
2024/04/03 04:44:32;;;;;;;6.88;3.00;;;;;;;;;;5055056;28;20067;-59
2024/04/03 04:46:58;;;;;;;4.95;3.20;;;;;;;;;;5055374;28;20067;-59
2024/04/03 04:49:24;;;;;;;5.43;3.08;;;;;;;;;;5055676;28;20088;-59
2024/04/03 04:51:52;;;;;;;5.28;2.75;;;;;;;;;;5055588;28;20048;-59
2024/04/03 04:54:18;;;;;;;5.30;2.88;;;;;;;;;;5047492;28;20053;-59
2024/04/03 04:56:44;;;;;;;6.65;2.90;;;;;;;;;;5055634;28;20056;-59
2024/04/03 04:59:12;;;;;;;6.72;3.08;;;;;;;;;;5046422;28;20052;-59
2024/04/03 05:01:38;;;;;;;6.93;3.08;;;;;;;;;;5055208;28;20079;-59
2024/04/03 05:04:05;;;;;;;5.63;3.40;;;;;;;;;;5047074;28;20059;-59
2024/04/03 05:06:32;;;;;;;6.78;4.03;;;;;;;;;;5054748;28;20064;-59
2024/04/03 05:09:00;;;;;;;6.20;3.95;;;;;;;;;;5046557;28;20056;-59
2024/04/03 05:11:26;;;;;;;6.65;4.05;;;;;;;;;;5055103;28;20475;-59
2024/04/03 05:13:53;;;;;;;6.80;3.85;;;;;;;;;;5046847;28;20045;-58
2024/04/03 05:16:20;;;;;;;8.93;4.53;;;;;;;;;;5054979;28;20053;-59
2024/04/03 05:18:47;;;;;;;8.85;4.38;;;;;;;;;;5046725;28;20041;-59
2024/04/03 05:21:13;;;;;;;9.32;4.50;;;;;;;;;;5055155;28;20048;-59
2024/04/03 05:23:42;;;;;;;8.10;4.32;;;;;;;;;;5046647;28;20052;-59
2024/04/03 05:26:11;;;;;;;6.22;3.97;;;;;;;;;;5054465;28;20517;-59
2024/04/03 05:28:38;;;;;;;6.10;3.85;;;;;;;;;;5046519;28;20387;-59
2024/04/03 05:31:05;;;;;;;6.15;3.60;;;;;;;;;;5054640;28;20502;-59
2024/04/03 05:33:32;;;;;;;7.47;3.83;;;;;;;;;;5054652;28;20045;-59
2024/04/03 05:35:58;;;;;;;5.68;3.65;;;;;;;;;;5054422;28;20057;-59
2024/04/03 05:38:25;;;;;;;6.95;3.58;;;;;;;;;;5054754;28;20045;-59
2024/04/03 05:40:51;;;;;;;6.38;3.45;;;;;;;;;;5054264;28;20064;-59
2024/04/03 05:43:20;;;;;;;5.45;3.75;;;;;;;;;;5046113;28;20396;-59
2024/04/03 05:45:46;;;;;;;4.82;3.35;;;;;;;;;;5054242;28;20049;-59
2024/04/03 05:48:13;;;;;;;6.45;3.80;;;;;;;;;;5054346;28;20099;-59
2024/04/03 05:50:39;;;;;;;4.38;3.30;;;;;;;;;;5053947;28;20045;-59
2024/04/03 05:53:06;;;;;;;5.97;3.15;;;;;;;;;;5046071;28;20526;-59
2024/04/03 05:55:31;;;;;;;5.55;3.58;;;;;;;;;;5045886;28;20056;-59
2024/04/03 05:57:59;;;;;;;6.97;4.00;;;;;;;;;;5047415;28;20045;-59
2024/04/03 06:00:27;;;;;;;7.50;4.40;;;;;;;;;;5053216;28;20053;-59
2024/04/03 06:02:53;;;;;;;6.18;4.00;;;;;;;;;;5047959;28;20054;-58
2024/04/03 06:05:19;;;;;;;6.88;3.63;;;;;;;;;;5052296;28;20056;-59
2024/04/03 06:07:47;;;;;;;8.57;4.05;;;;;;;;;;5047909;28;20064;-59
2024/04/03 06:10:13;;;;;;;5.10;3.58;;;;;;;;;;5051241;28;20520;-59
2024/04/03 06:12:40;;;;;;;7.00;3.40;;;;;;;;;;5048847;28;20049;-58
2024/04/03 06:15:06;;;;;;;5.97;3.72;;;;;;;;;;5049818;28;20049;-58
2024/04/03 06:17:34;;;;;;;5.90;3.95;;;;;;;;;;5050167;28;20049;-59
2024/04/03 06:20:00;;;;;;;5.85;3.40;;;;;;;;;;5048755;28;20053;-58
2024/04/03 06:22:27;;;;;;;5.30;3.45;;;;;;;;;;5050767;28;20139;-59
2024/04/03 06:24:52;;;;;;;7.45;3.50;;;;;;;;;;5047810;28;20064;-59
2024/04/03 06:27:19;;;;;;;6.05;2.95;;;;;;;;;;5051343;28;20049;-59
2024/04/03 06:29:45;;;;;;;5.40;2.28;;;;;;;;;;5046783;28;20049;-59
2024/04/03 06:32:12;;;;;;;6.68;2.40;;;;;;;;;;5052561;28;20056;-58
2024/04/03 06:34:40;;;;;;;4.95;1.77;;;;;;;;;;5053075;28;20520;-65
2024/04/03 06:37:07;;;;;;;5.00;1.75;;;;;;;;;;5053413;28;20055;-59
2024/04/03 06:39:33;;;;;;;5.68;2.03;;;;;;;;;;5053505;28;20068;-59
2024/04/03 06:42:00;;;;;;;4.75;1.55;;;;;;;;;;5053382;28;20498;-60
2024/04/03 06:44:26;;;;;;;4.32;1.60;;;;;;;;;;5045102;28;20060;-59
2024/04/03 06:46:54;;;;;;;4.10;1.30;;;;;;;;;;5052618;28;20061;-59
2024/04/03 06:49:20;;;;;;;5.47;1.55;;;;;;;;;;5053233;28;20053;-59
2024/04/03 06:51:48;;;;;;;4.43;1.60;;;;;;;;;;5052780;28;20057;-59
2024/04/03 06:54:18;;;;;;;6.32;1.50;;;;;;;;;;5045065;28;20052;-59
2024/04/03 06:56:47;;;;;;;4.68;1.80;;;;;;;;;;5053203;28;20053;-59
2024/04/03 06:59:14;;;;;;;4.82;1.90;;;;;;;;;;5044430;28;20056;-59
2024/04/03 07:01:39;;;;;;;3.40;1.38;;;;;;;;;;5052727;28;20060;-59
2024/04/03 07:04:06;;;;;;;8.73;2.63;;;;;;;;;;5044751;28;20044;-59
2024/04/03 07:06:33;;;;;;;6.35;1.67;;;;;;;;;;5052735;28;20060;-59
2024/04/03 07:09:01;;;;;;;4.68;1.73;;;;;;;;;;5044352;28;20045;-59
2024/04/03 07:11:30;;;;;;;5.22;1.90;;;;;;;;;;5052549;28;20053;-59
2024/04/03 07:13:56;;;;;;;4.77;1.70;;;;;;;;;;5044708;28;20486;-59
2024/04/03 07:16:24;;;;;;;5.38;2.17;;;;;;;;;;5052916;28;20532;-59
2024/04/03 07:18:53;;;;;;;4.72;1.70;;;;;;;;;;5044425;28;20045;-59
2024/04/03 07:21:19;;;;;;;4.60;2.00;;;;;;;;;;5052356;28;20053;-60
2024/04/03 07:23:46;;;;;;;3.03;1.40;;;;;;;;;;5044215;28;20059;-59
2024/04/03 07:26:14;;;;;;;3.83;1.77;;;;;;;;;;5052510;28;20127;-59
2024/04/03 07:28:42;;;;;;;4.30;1.40;;;;;;;;;;5044066;28;20048;-59
2024/04/03 07:31:08;;;;;;;8.85;2.15;;;;;;;;;;5051697;28;20400;-60
2024/04/03 07:33:34;;;;;;;5.40;1.60;;;;;;;;;;5052160;28;20087;-59
2024/04/03 07:36:00;;;;;;;3.13;1.20;;;;;;;;;;5052030;28;20052;-60
2024/04/03 07:38:27;;;;;;;5.68;1.90;;;;;;;;;;5044362;28;20057;-59
2024/04/03 07:40:54;;;;;;;3.42;1.58;;;;;;;;;;5052532;28;20057;-60
2024/04/03 07:43:22;;;;;;;4.95;1.50;;;;;;;;;;5043689;28;20053;-60
2024/04/03 07:45:48;;;;;;;4.35;1.45;;;;;;;;;;5051993;28;20415;-59
2024/04/03 07:48:15;;;;;;;4.03;1.40;;;;;;;;;;5051484;28;20057;-59
2024/04/03 07:50:41;;;;;;;6.35;1.77;;;;;;;;;;5052070;28;20056;-60
2024/04/03 07:53:07;;;;;;;5.10;1.55;;;;;;;;;;5043711;28;20053;-60
2024/04/03 07:55:35;;;;;;;3.83;1.60;;;;;;;;;;5043721;28;20048;-60
2024/04/03 07:58:02;;;;;;;3.72;1.63;;;;;;;;;;5044940;28;20467;-60
2024/04/03 08:00:29;;;;;;;4.18;1.33;;;;;;;;;;5051297;28;20057;-60
2024/04/03 08:02:56;;;;;;;4.85;1.67;;;;;;;;;;5045186;28;20049;-59
2024/04/03 08:05:22;;;;;;;3.55;1.38;;;;;;;;;;5050790;28;20053;-60
2024/04/03 08:07:49;;;;;;;3.63;1.70;;;;;;;;;;5046293;28;20053;-59
2024/04/03 08:10:15;;;;;;;3.75;1.40;;;;;;;;;;5049141;28;20049;-60
2024/04/03 08:12:42;;;;;;;2.03;1.15;;;;;;;;;;5047198;28;20520;-60
2024/04/03 08:15:11;;;;;;;4.75;1.70;;;;;;;;;;5048993;28;20491;-59
2024/04/03 08:17:39;;;;;;;3.87;1.33;;;;;;;;;;5048132;28;20072;-60
2024/04/03 08:20:05;;;;;;;5.70;1.48;;;;;;;;;;5047950;28;20089;-60
2024/04/03 08:22:32;;;;;;;3.58;1.40;;;;;;;;;;5051790;28;20049;-60
2024/04/03 08:24:58;;;;;;;4.18;1.40;;;;;;;;;;5052006;28;20060;-60
2024/04/03 08:27:25;;;;;;;3.45;1.42;;;;;;;;;;5049602;28;20045;-59
2024/04/03 08:29:55;;;;;;;4.13;1.50;;;;;;;;;;5045803;28;20049;-59
2024/04/03 08:32:22;;;;;;;2.65;1.13;;;;;;;;;;5049743;28;20055;-60
2024/04/03 08:34:52;;;;;;;3.60;1.50;;;;;;;;;;5045527;28;20463;-60
2024/04/03 08:37:19;;;;;;;5.20;1.17;;;;;;;;;;5049901;28;20049;-59
2024/04/03 08:39:46;;;;;;;2.35;1.23;;;;;;;;;;5044829;28;20041;-60
2024/04/03 08:42:12;;;;;;;3.35;1.33;;;;;;;;;;5050436;28;20052;-60
2024/04/03 08:44:40;;;;;;;3.63;1.10;;;;;;;;;;5046431;28;20049;-59
2024/04/03 08:47:06;;;;;;;4.30;1.20;;;;;;;;;;5054969;28;20061;-59
2024/04/03 08:49:33;;;;;;;3.13;1.20;;;;;;;;;;5055392;28;20098;-59
2024/04/03 08:52:02;;;;;;;4.28;1.10;;;;;;;;;;5055701;28;20064;-59
2024/04/03 08:54:29;;;;;;;2.13;1.15;;;;;;;;;;5047219;28;20063;-59
2024/04/03 08:56:55;;;;;;;3.40;1.33;;;;;;;;;;5055255;28;20506;-60
2024/04/03 08:59:22;;;;;;;4.30;1.45;;;;;;;;;;5047029;28;20049;-59
2024/04/03 09:01:49;;;;;;;3.50;1.10;;;;;;;;;;5054904;28;20521;-60
2024/04/03 09:04:16;;;;;;;2.55;1.13;;;;;;;;;;5046954;28;20375;-60
2024/04/03 09:06:42;;;;;;;3.38;1.23;;;;;;;;;;5055293;28;20065;-59
2024/04/03 09:09:17;;;;;;;2.15;0.90;;;;;;;;;;5046741;28;20064;-60
2024/04/03 09:11:43;;;;;;;3.88;1.00;;;;;;;;;;5055122;28;20060;-59
2024/04/03 09:14:10;;;;;;;2.70;1.00;;;;;;;;;;5046382;28;20128;-59
2024/04/03 09:16:36;;;;;;;5.72;1.17;;;;;;;;;;5055160;28;20057;-60
2024/04/03 09:19:06;;;;;;;2.97;1.15;;;;;;;;;;5046460;28;20055;-60
2024/04/03 09:21:32;;;;;;;2.55;1.00;;;;;;;;;;5054820;28;20462;-60
2024/04/03 09:23:59;;;;;;;3.60;0.90;;;;;;;;;;5054502;28;20049;-59
2024/04/03 09:26:26;;;;;;;3.55;1.30;;;;;;;;;;5054185;28;20052;-59
2024/04/03 09:28:59;;;;;;;3.28;1.20;;;;;;;;;;5054545;28;20064;-59
2024/04/03 09:31:25;;;;;;;2.92;1.00;;;;;;;;;;5054404;28;20054;-59
2024/04/03 09:33:52;;;;;;;2.10;1.00;;;;;;;;;;5046337;28;20116;-60
2024/04/03 09:36:18;;;;;;;2.85;1.10;;;;;;;;;;5054964;28;20052;-59
2024/04/03 09:38:44;;;;;;;3.65;1.08;;;;;;;;;;5046472;28;20132;-59
2024/04/03 09:41:11;;;;;;;1.75;0.90;;;;;;;;;;5054257;28;20072;-60
2024/04/03 09:43:44;;;;;;;2.60;1.00;;;;;;;;;;5046204;28;20069;-59
2024/04/03 09:46:11;;;;;;;2.65;1.13;;;;;;;;;;5054409;28;20053;-59
2024/04/03 09:48:39;;;;;;;3.42;1.13;;;;;;;;;;5053979;28;20189;-59
2024/04/03 09:51:05;;;;;;;3.33;1.13;;;;;;;;;;5054152;28;20057;-59
2024/04/03 09:53:32;;;;;;;2.45;0.95;;;;;;;;;;5045197;28;20048;-60
2024/04/03 09:55:58;;;;;;;2.67;0.80;;;;;;;;;;5052527;28;20057;-59
2024/04/03 09:58:27;;;;;;;2.97;1.05;;;;;;;;;;5045824;28;20045;-59
2024/04/03 10:00:56;;;;;;;1.60;0.80;;;;;;;;;;5054223;28;20065;-60
2024/04/03 10:03:24;;;;;;;2.40;0.83;;;;;;;;;;5045840;28;20057;-59
2024/04/03 10:05:57;;;;;;;1.77;0.73;;;;;;;;;;5053764;28;20053;-59
2024/04/03 10:08:24;;;;;;;2.30;1.00;;;;;;;;;;5045160;28;20049;-60
2024/04/03 10:10:50;;;;;;;2.42;0.75;;;;;;;;;;5053582;28;20053;-59
2024/04/03 10:13:19;;;;;;;2.22;0.90;;;;;;;;;;5045444;28;20049;-59
2024/04/03 10:15:45;;;;;;;3.75;1.00;;;;;;;;;;5053520;28;20494;-59
2024/04/03 10:18:16;;;;;;;3.58;1.02;;;;;;;;;;5044934;28;20132;-60
2024/04/03 10:20:44;;;;;;;2.00;0.90;;;;;;;;;;5053660;28;20055;-60
2024/04/03 10:23:14;;;;;;;2.13;1.00;;;;;;;;;;5045463;28;20052;-60
2024/04/03 10:25:39;;;;;;;1.50;0.65;;;;;;;;;;5053384;28;20071;-60
2024/04/03 10:28:10;;;;;;;2.63;0.80;;;;;;;;;;5053327;28;20052;-60
2024/04/03 10:30:36;;;;;;;2.80;0.90;;;;;;;;;;5053781;28;20056;-59
2024/04/03 10:33:03;;;;;;;1.77;0.73;;;;;;;;;;5046101;28;20081;-59
2024/04/03 10:35:30;;;;;;;2.90;0.80;;;;;;;;;;5052854;28;20418;-59
2024/04/03 10:37:58;;;;;;;1.10;0.70;;;;;;;;;;5046732;28;20057;-58
2024/04/03 10:40:25;;;;;;;1.83;0.67;;;;;;;;;;5052057;28;20072;-59
2024/04/03 10:42:51;;;;;;;2.47;1.00;;;;;;;;;;5046891;28;20057;-59
2024/04/03 10:45:18;;;;;;;3.80;0.80;;;;;;;;;;5050593;28;20064;-60
2024/04/03 10:47:45;;;;;;;1.60;0.85;;;;;;;;;;5052526;28;20056;-59
2024/04/03 10:50:10;;;;;;;2.38;0.70;;;;;;;;;;5052985;28;20056;-59
2024/04/03 10:52:39;;;;;;;2.15;0.57;;;;;;;;;;5048579;28;20053;-59
2024/04/03 10:55:04;;;;;;;3.65;0.70;;;;;;;;;;5049067;28;20483;-60
2024/04/03 10:57:32;;;;;;;2.33;0.75;;;;;;;;;;5049151;28;20135;-59
2024/04/03 10:59:58;;;;;;;2.20;0.80;;;;;;;;;;5048145;28;20048;-59
2024/04/03 11:02:27;;;;;;;2.42;0.88;;;;;;;;;;5053115;28;20060;-60
2024/04/03 11:04:54;;;;;;;1.67;0.68;;;;;;;;;;5054033;28;20055;-59
2024/04/03 11:07:20;;;;;;;1.73;0.75;;;;;;;;;;5050698;28;20048;-59
2024/04/03 11:09:48;;;;;;;2.05;0.80;;;;;;;;;;5046114;28;20198;-59
2024/04/03 11:12:15;;;;;;;4.32;0.88;;;;;;;;;;5051379;28;20059;-59
2024/04/03 11:14:41;;;;;;;1.80;0.60;;;;;;;;;;5045261;28;20049;-59
2024/04/03 11:17:08;;;;;;;1.60;0.77;;;;;;;;;;5052147;28;20090;-60
2024/04/03 11:19:34;;;;;;;2.03;0.93;;;;;;;;;;5052726;28;20049;-59
2024/04/03 11:22:01;;;;;;;1.13;0.57;;;;;;;;;;5052544;28;20048;-60
2024/04/03 11:24:27;;;;;;;2.08;0.63;;;;;;;;;;5044613;28;20076;-59
2024/04/03 11:26:55;;;;;;;1.25;0.60;;;;;;;;;;5052555;28;20048;-58
2024/04/03 11:29:25;;;;;;;2.15;0.63;;;;;;;;;;5043899;28;20056;-59
2024/04/03 11:31:52;;;;;;;1.13;0.50;;;;;;;;;;5052511;28;20049;-58
2024/04/03 11:34:17;;;;;;;1.75;0.65;;;;;;;;;;5044278;28;20063;-59
2024/04/03 11:36:44;;;;;;;2.05;0.55;;;;;;;;;;5052475;28;20045;-59
2024/04/03 11:39:10;;;;;;;1.23;0.50;;;;;;;;;;5044321;28;20065;-58
2024/04/03 11:41:37;;;;;;;1.88;0.68;;;;;;;;;;5052271;28;20057;-58
2024/04/03 11:44:04;;;;;;;1.20;0.60;;;;;;;;;;5044119;28;20057;-59
2024/04/03 11:46:31;;;;;;;2.42;0.50;;;;;;;;;;5052121;28;20406;-58
2024/04/03 11:48:59;;;;;;;1.75;0.77;;;;;;;;;;5052244;28;20060;-59
2024/04/03 11:51:26;;;;;;;0.98;0.50;;;;;;;;;;5051793;28;20055;-58
2024/04/03 11:53:52;;;;;;;2.15;0.70;;;;;;;;;;5044028;28;20053;-59
2024/04/03 11:56:19;;;;;;;1.65;0.63;;;;;;;;;;5052058;28;20505;-58
2024/04/03 11:58:45;;;;;;;1.25;0.50;;;;;;;;;;5043724;28;20049;-58
2024/04/03 12:01:15;;;;;;;1.23;0.60;;;;;;;;;;5052230;28;20088;-59
2024/04/03 12:03:40;;;;;;;;;;;;;;;;;;5052562;28;20056;-59
2024/04/03 12:06:07;;;;;;;1.45;0.35;;;;;;;;;;5051970;28;19916;-59
2024/04/03 12:08:33;;;;;;;1.20;0.47;;;;;;;;;;5044062;28;20057;-59
2024/04/03 12:11:00;;;;;;;1.23;0.40;;;;;;;;;;5052120;28;20056;-58
2024/04/03 12:13:26;;;;;;;0.90;0.45;;;;;;;;;;5043651;28;20053;-59
2024/04/03 12:15:53;;;;;;;1.48;0.50;;;;;;;;;;5052049;28;20445;-58
2024/04/03 12:18:25;;;;;;;1.67;0.70;;;;;;;;;;5052184;28;20053;-58
2024/04/03 12:20:52;;;;;;;1.80;0.50;;;;;;;;;;5055792;28;20049;-59
2024/04/03 12:23:18;;;;;;;3.80;0.68;;;;;;;;;;5047783;28;20077;-59
2024/04/03 12:25:45;;;;;;;2.72;0.50;;;;;;;;;;5055556;28;20048;-59
2024/04/03 12:28:10;;;;;;;1.25;0.60;;;;;;;;;;5047636;28;20057;-59
2024/04/03 12:30:37;;;;;;;1.15;0.50;;;;;;;;;;5055412;28;20092;-59
2024/04/03 12:33:04;;;;;;;0.90;0.45;;;;;;;;;;5047823;28;20057;-60
2024/04/03 12:35:33;;;;;;;0.70;0.38;;;;;;;;;;5055270;28;20064;-59
2024/04/03 12:37:58;;;;;;;2.05;0.60;;;;;;;;;;5048850;28;20376;-59
2024/04/03 12:40:25;;;;;;;1.15;0.50;;;;;;;;;;5053836;28;20123;-59
2024/04/03 12:42:51;;;;;;;1.98;0.73;;;;;;;;;;5049146;28;20049;-59
2024/04/03 12:45:18;;;;;;;2.55;0.45;;;;;;;;;;5053314;28;20052;-59
2024/04/03 12:47:44;;;;;;;0.90;0.30;;;;;;;;;;5054813;28;20064;-59
2024/04/03 12:50:11;;;;;;;0.95;0.47;;;;;;;;;;5054854;28;20053;-59
2024/04/03 12:52:38;;;;;;;0.88;0.43;;;;;;;;;;5051482;28;20075;-59
2024/04/03 12:55:05;;;;;;;2.05;0.50;;;;;;;;;;5051417;28;20064;-59
2024/04/03 12:57:31;;;;;;;1.77;0.50;;;;;;;;;;5051541;28;20049;-59
2024/04/03 12:59:58;;;;;;;0.80;0.40;;;;;;;;;;5050114;28;20048;-59
2024/04/03 13:02:27;;;;;;;0.85;0.40;;;;;;;;;;5052363;28;20490;-58
2024/04/03 13:04:54;;;;;;;0.95;0.43;;;;;;;;;;5049114;28;20049;-59
2024/04/03 13:07:19;;;;;;;1.00;0.50;;;;;;;;;;5052765;28;20052;-58
2024/04/03 13:09:48;;;;;;;1.83;0.43;;;;;;;;;;5048125;28;20060;-59
2024/04/03 13:12:14;;;;;;;2.42;0.47;;;;;;;;;;5053745;28;20049;-59
2024/04/03 13:14:40;;;;;;;1.70;0.30;;;;;;;;;;5047447;28;20472;-59
2024/04/03 13:17:06;;;;;;;1.50;0.50;;;;;;;;;;5054782;28;20049;-59
2024/04/03 13:19:33;;;;;;;1.23;0.40;;;;;;;;;;5054769;28;20449;-59
2024/04/03 13:21:59;;;;;;;2.03;0.70;;;;;;;;;;5054234;28;20048;-59
2024/04/03 13:24:26;;;;;;;0.60;0.30;;;;;;;;;;5046432;28;20075;-59
2024/04/03 13:26:53;;;;;;;1.00;0.40;;;;;;;;;;5054387;28;20056;-59
2024/04/03 13:29:20;;;;;;;1.50;0.40;;;;;;;;;;5046094;28;20057;-59
2024/04/03 13:31:45;;;;;;;0.80;0.30;;;;;;;;;;5054099;28;20053;-59
2024/04/03 13:34:12;;;;;;;0.57;0.35;;;;;;;;;;5046345;28;20052;-59
2024/04/03 13:36:38;;;;;;;0.40;0.20;;;;;;;;;;5054077;28;20052;-58
2024/04/03 13:39:08;;;;;;;1.42;0.38;;;;;;;;;;5054580;28;20390;-59
2024/04/03 13:41:34;;;;;;;0.63;0.40;;;;;;;;;;5054421;28;20053;-59
2024/04/03 13:44:02;;;;;;;0.70;0.40;;;;;;;;;;5054368;28;20099;-59
2024/04/03 13:46:28;;;;;;;0.77;0.30;;;;;;;;;;5054139;28;20057;-59
2024/04/03 13:48:55;;;;;;;1.67;0.43;;;;;;;;;;5054732;28;20049;-59
2024/04/03 13:51:21;;;;;;;0.82;0.40;;;;;;;;;;5054263;28;20049;-59
2024/04/03 13:53:47;;;;;;;0.90;0.40;;;;;;;;;;5045929;28;20068;-59
2024/04/03 13:56:14;;;;;;;2.45;0.43;;;;;;;;;;5054287;28;20052;-59
2024/04/03 13:58:41;;;;;;;0.73;0.40;;;;;;;;;;5045870;28;20060;-59
2024/04/03 14:01:09;;;;;;;0.73;0.20;;;;;;;;;;5053647;28;20128;-59
2024/04/03 14:03:36;;;;;;;0.70;0.40;;;;;;;;;;5045322;28;20053;-59
2024/04/03 14:06:04;;;;;;;1.15;0.43;;;;;;;;;;5053609;28;20060;-59
2024/04/03 14:08:30;;;;;;;1.33;0.40;;;;;;;;;;5045349;28;20048;-59
2024/04/03 14:10:58;;;;;;;0.90;0.40;;;;;;;;;;5053845;28;20044;-59
2024/04/03 14:13:23;;;;;;;0.30;0.20;;;;;;;;;;5045654;28;20056;-59
2024/04/03 14:15:50;;;;;;;0.85;0.30;;;;;;;;;;5053578;28;20049;-59
2024/04/03 14:18:18;;;;;;;0.50;0.30;;;;;;;;;;5045574;28;20053;-59
2024/04/03 14:20:45;;;;;;;0.93;0.40;;;;;;;;;;5052724;28;20060;-59
2024/04/03 14:23:11;;;;;;;1.08;0.45;;;;;;;;;;5045171;28;20076;-58
2024/04/03 14:25:42;;;;;;;0.47;0.30;;;;;;;;;;5053049;28;20060;-59
2024/04/03 14:28:08;;;;;;;1.02;0.45;;;;;;;;;;5045640;28;20084;-59
2024/04/03 14:30:36;;;;;;;0.75;0.40;;;;;;;;;;5053356;28;20445;-59
2024/04/03 14:33:02;;;;;;;0.73;0.30;;;;;;;;;;5045792;28;20057;-59
2024/04/03 14:35:31;;;;;;;2.22;0.30;;;;;;;;;;5052825;28;20403;-59
2024/04/03 14:37:57;;;;;;;1.45;0.57;;;;;;;;;;5046656;28;20057;-59
2024/04/03 14:40:24;;;;;;;1.80;0.40;;;;;;;;;;5051499;28;20048;-59
2024/04/03 14:42:49;;;;;;;0.73;0.40;;;;;;;;;;5052518;28;20068;-59